Time;durP1;ratioP1;P1;durP2;ratioP2;P2;SDS_P1;SDS_P2;PMS_P1;PMS_P2;Temp;Humidity;BMP_temperature;BMP_pressure;BME280_temperature;BME280_humidity;BME280_pressure;Samples;Min_cycle;Max_cycle;Signal;HPM_P1;HPM_P2
2022/11/12 00:02:20;;;;;;;36.88;23.00;;;6.50;99.90;;;;;;4973998;28;20050;-76
2022/11/12 00:04:45;;;;;;;27.38;19.85;;;6.40;99.90;;;;;;4974986;28;20046;-77
2022/11/12 00:07:15;;;;;;;25.45;17.90;;;6.40;99.90;;;;;;4945128;28;20110;-77
2022/11/12 00:09:40;;;;;;;34.03;23.95;;;6.40;99.90;;;;;;4937904;28;20049;-77
2022/11/12 00:12:06;;;;;;;31.70;21.20;;;6.40;99.90;;;;;;4962560;28;20396;-76
2022/11/12 00:14:32;;;;;;;32.10;22.33;;;6.40;99.90;;;;;;4940076;28;20105;-76
2022/11/12 00:16:57;;;;;;;34.47;23.45;;;6.50;99.90;;;;;;4965303;28;20539;-77
2022/11/12 00:19:23;;;;;;;29.52;21.42;;;6.30;99.90;;;;;;4969822;28;20101;-76
2022/11/12 00:21:49;;;;;;;32.38;22.42;;;6.40;99.90;;;;;;4960221;28;20050;-76
2022/11/12 00:24:14;;;;;;;37.20;23.85;;;6.30;99.90;;;;;;4964751;28;20078;-77
2022/11/12 00:26:40;;;;;;;28.33;19.95;;;6.30;99.90;;;;;;4969282;28;20098;-77
2022/11/12 00:29:06;;;;;;;32.17;22.25;;;6.30;99.90;;;;;;4973996;28;20059;-77
2022/11/12 00:31:33;;;;;;;26.75;20.33;;;6.30;99.90;;;;;;4975009;28;20062;-76
2022/11/12 00:33:59;;;;;;;29.60;21.13;;;6.30;99.90;;;;;;4972701;28;20086;-77
2022/11/12 00:36:24;;;;;;;30.38;21.13;;;6.20;99.90;;;;;;4974861;28;20081;-76
2022/11/12 00:38:50;;;;;;;29.42;20.52;;;6.30;99.90;;;;;;4978197;28;20042;-77
2022/11/12 00:41:15;;;;;;;27.38;20.52;;;6.30;99.90;;;;;;4965478;28;20053;-76
2022/11/12 00:43:41;;;;;;;28.85;20.50;;;6.20;99.90;;;;;;4973052;28;20055;-76
2022/11/12 00:46:07;;;;;;;30.55;21.02;;;6.20;99.90;;;;;;4975201;28;20130;-76
2022/11/12 00:48:32;;;;;;;33.42;22.52;;;6.30;99.90;;;;;;4972742;28;20479;-77
2022/11/12 00:51:03;;;;;;;31.42;20.92;;;6.50;99.90;;;;;;4955843;28;20054;-77
2022/11/12 00:53:29;;;;;;;30.83;21.85;;;6.20;99.90;;;;;;4962548;28;20047;-77
2022/11/12 00:56:03;;;;;;;33.22;21.70;;;6.20;99.90;;;;;;4954998;28;20074;-76
2022/11/12 00:58:30;;;;;;;28.10;20.58;;;6.20;99.90;;;;;;4972345;28;20534;-77
2022/11/12 01:00:56;;;;;;;29.17;19.33;;;6.20;99.90;;;;;;4973463;28;20054;-76
2022/11/12 01:03:22;;;;;;;27.67;19.55;;;6.40;99.90;;;;;;4956927;28;20050;-76
2022/11/12 01:05:48;;;;;;;33.75;21.83;;;6.20;99.90;;;;;;4957039;28;20074;-77
2022/11/12 01:08:13;;;;;;;28.67;20.05;;;6.20;99.90;;;;;;4973632;28;20051;-76
2022/11/12 01:10:39;;;;;;;27.85;20.05;;;6.20;99.90;;;;;;4971019;28;20546;-77
2022/11/12 01:13:05;;;;;;;27.15;20.17;;;6.20;99.90;;;;;;4973357;28;20047;-76
2022/11/12 01:15:30;;;;;;;31.38;20.90;;;6.10;99.90;;;;;;4970928;28;20046;-76
2022/11/12 01:17:56;;;;;;;27.70;19.73;;;6.10;99.90;;;;;;4939573;28;20039;-76
2022/11/12 01:20:22;;;;;;;29.85;20.33;;;6.10;99.90;;;;;;4957087;28;20051;-76
2022/11/12 01:22:47;;;;;;;33.28;21.63;;;6.10;99.90;;;;;;4972861;28;20157;-76
2022/11/12 01:25:13;;;;;;;32.00;20.95;;;6.10;99.90;;;;;;4944542;28;20070;-76
2022/11/12 01:27:39;;;;;;;31.00;21.02;;;6.10;99.90;;;;;;4971494;28;20105;-76
2022/11/12 01:30:05;;;;;;;25.02;17.08;;;6.10;99.90;;;;;;4973203;28;20125;-76
2022/11/12 01:32:35;;;;;;;29.73;19.83;;;6.10;99.90;;;;;;4972743;28;20061;-77
2022/11/12 01:35:00;;;;;;;30.80;20.73;;;6.00;99.90;;;;;;4972380;28;20051;-77
2022/11/12 01:37:26;;;;;;;30.33;18.73;;;6.00;99.90;;;;;;4974364;28;20046;-76
2022/11/12 01:39:52;;;;;;;28.70;19.05;;;6.00;99.90;;;;;;4986432;28;20050;-75
2022/11/12 01:42:17;;;;;;;24.80;17.75;;;6.00;99.90;;;;;;4957325;28;20047;-76
2022/11/12 01:44:45;;;;;;;26.75;18.58;;;6.00;99.90;;;;;;4987506;28;20046;-76
2022/11/12 01:47:27;;;;;;;30.40;19.38;;;6.20;99.90;;;;;;4973241;28;20073;-76
2022/11/12 01:50:36;;;;;;;29.48;18.70;;;6.00;99.90;;;;;;4971686;28;20101;-75
2022/11/12 01:53:08;;;;;;;25.92;17.48;;;6.00;99.90;;;;;;4964228;28;20510;-76
2022/11/12 01:55:36;;;;;;;30.15;18.13;;;6.00;99.90;;;;;;4963444;28;20399;-75
2022/11/12 01:58:13;;;;;;;27.35;17.77;;;6.00;99.90;;;;;;4968221;28;20551;-76
2022/11/12 02:00:40;;;;;;;25.58;17.63;;;6.00;99.90;;;;;;4973110;28;20043;-76
2022/11/12 02:03:18;;;;;;;29.35;19.25;;;6.00;99.90;;;;;;4971266;28;20391;-75
2022/11/12 02:05:47;;;;;;;27.13;18.52;;;6.00;99.90;;;;;;4963134;28;20057;-76
2022/11/12 02:08:13;;;;;;;24.75;17.23;;;6.00;99.90;;;;;;4956518;28;20055;-76
2022/11/12 02:10:39;;;;;;;28.88;18.67;;;6.00;99.90;;;;;;5003070;28;20098;-75
2022/11/12 02:15:51;;;;;;;24.02;15.73;;;6.00;99.90;;;;;;4965899;28;20058;-75
2022/11/12 02:18:16;;;;;;;26.42;16.45;;;6.00;99.90;;;;;;4975358;28;20050;-75
2022/11/12 02:20:42;;;;;;;27.73;17.45;;;6.00;99.90;;;;;;4976318;28;20058;-75
2022/11/12 02:23:08;;;;;;;27.48;17.55;;;6.00;99.90;;;;;;4958813;28;20054;-76
2022/11/12 02:25:35;;;;;;;28.38;18.15;;;6.00;99.90;;;;;;4972544;28;20055;-76
2022/11/12 02:28:05;;;;;;;29.00;18.02;;;6.30;99.90;;;;;;4976089;28;20058;-77
2022/11/12 02:30:35;;;;;;;28.55;18.35;;;6.10;99.90;;;;;;4976214;28;20051;-75
2022/11/12 02:33:00;;;;;;;25.77;16.75;;;5.90;99.90;;;;;;4974920;28;20110;-76
2022/11/12 02:35:26;;;;;;;29.10;18.65;;;5.90;99.90;;;;;;4975558;28;20138;-76
2022/11/12 02:37:52;;;;;;;28.10;17.88;;;5.80;99.90;;;;;;4975516;28;20049;-76
2022/11/12 02:40:18;;;;;;;27.05;17.15;;;5.80;99.90;;;;;;4978266;28;20483;-75
2022/11/12 02:42:43;;;;;;;30.50;18.13;;;5.80;99.90;;;;;;4986946;28;20039;-75
2022/11/12 02:45:10;;;;;;;27.08;16.92;;;5.80;99.90;;;;;;4976359;28;20083;-75
2022/11/12 02:47:35;;;;;;;24.10;16.67;;;5.80;99.90;;;;;;4960190;28;20051;-75
2022/11/12 02:50:02;;;;;;;23.63;15.73;;;5.90;99.90;;;;;;4975076;28;20055;-77
2022/11/12 02:52:27;;;;;;;27.50;16.90;;;5.80;99.90;;;;;;4988825;28;20502;-75
2022/11/12 02:54:53;;;;;;;27.08;17.42;;;5.70;99.90;;;;;;4975485;28;20054;-75
2022/11/12 02:57:19;;;;;;;28.05;17.35;;;5.80;99.90;;;;;;4958965;28;20467;-75
2022/11/12 02:59:44;;;;;;;24.85;15.60;;;5.70;99.90;;;;;;4975958;28;20129;-75
2022/11/12 03:02:10;;;;;;;26.35;17.60;;;5.70;99.90;;;;;;4945708;28;20051;-76
2022/11/12 03:04:36;;;;;;;24.95;16.17;;;5.70;99.90;;;;;;4974889;28;20043;-75
2022/11/12 03:07:01;;;;;;;24.55;16.88;;;5.70;99.90;;;;;;4959604;28;20122;-75
2022/11/12 03:09:27;;;;;;;22.88;13.65;;;5.70;99.90;;;;;;4975141;28;20475;-75
2022/11/12 03:11:53;;;;;;;19.50;13.15;;;5.60;99.90;;;;;;4975296;28;20137;-75
2022/11/12 03:14:18;;;;;;;20.23;13.25;;;5.70;99.90;;;;;;4958969;28;20090;-75
2022/11/12 03:16:44;;;;;;;25.08;16.25;;;5.60;99.90;;;;;;4964993;28;20055;-75
2022/11/12 03:19:10;;;;;;;35.75;21.50;;;5.60;99.90;;;;;;4974370;28;20050;-75
2022/11/12 03:21:35;;;;;;;40.78;22.60;;;5.60;99.90;;;;;;4962022;28;20090;-75
2022/11/12 03:24:01;;;;;;;25.67;16.80;;;5.80;99.90;;;;;;4957515;28;20058;-75
2022/11/12 03:26:27;;;;;;;20.63;13.73;;;5.70;99.90;;;;;;4974671;28;20055;-75
2022/11/12 03:28:53;;;;;;;21.13;14.40;;;5.70;99.90;;;;;;4974077;28;20105;-75
2022/11/12 03:31:19;;;;;;;20.10;14.15;;;5.70;99.90;;;;;;4979144;28;20101;-74
2022/11/12 03:33:44;;;;;;;22.17;14.80;;;5.60;99.90;;;;;;4961945;28;20046;-75
2022/11/12 03:36:11;;;;;;;18.95;12.80;;;5.60;99.90;;;;;;4975227;28;20558;-75
2022/11/12 03:38:37;;;;;;;21.60;14.38;;;5.60;99.90;;;;;;4973760;28;20173;-74
2022/11/12 03:41:02;;;;;;;19.13;12.15;;;5.60;99.90;;;;;;4964218;28;20130;-75
2022/11/12 03:43:28;;;;;;;15.00;10.50;;;5.50;99.90;;;;;;4945008;28;20050;-75
2022/11/12 03:45:54;;;;;;;26.08;15.70;;;5.60;99.90;;;;;;5001898;28;20102;-74
2022/11/12 03:48:19;;;;;;;17.83;11.65;;;5.70;99.90;;;;;;4972373;28;20043;-74
2022/11/12 03:50:45;;;;;;;15.57;10.65;;;5.40;99.90;;;;;;4962468;28;20046;-75
2022/11/12 03:53:11;;;;;;;14.32;10.40;;;5.30;99.90;;;;;;4961718;28;20087;-74
2022/11/12 03:55:37;;;;;;;14.45;10.02;;;5.40;99.90;;;;;;4973575;28;20418;-75
2022/11/12 03:58:02;;;;;;;15.18;10.10;;;5.40;99.90;;;;;;4974208;28;20059;-75
2022/11/12 04:00:29;;;;;;;16.55;10.40;;;5.40;99.90;;;;;;4944549;28;20046;-74
2022/11/12 04:02:55;;;;;;;12.52;9.43;;;5.70;99.90;;;;;;4973811;28;20062;-77
2022/11/12 04:10:59;;;;;;;14.63;9.75;;;5.40;99.90;;;;;;4973831;28;20063;-74
2022/11/12 04:13:27;;;;;;;14.88;9.50;;;5.40;99.90;;;;;;4962981;28;20098;-75
2022/11/12 04:21:50;;;;;;;11.77;8.43;;;5.30;99.90;;;;;;4974286;28;20059;-74
2022/11/12 04:27:20;;;;;;;13.43;7.07;;;5.20;99.90;;;;;;4973439;28;20050;-74
2022/11/12 04:32:32;;;;;;;18.13;11.60;;;5.00;99.90;;;;;;4975108;28;20395;-75
2022/11/12 04:34:58;;;;;;;21.70;12.07;;;4.90;99.90;;;;;;4957141;28;20130;-75
2022/11/12 04:37:26;;;;;;;12.25;7.72;;;4.70;99.90;;;;;;4957633;28;20546;-75
2022/11/12 04:39:52;;;;;;;11.77;8.02;;;4.80;99.90;;;;;;4973534;28;20442;-74
2022/11/12 04:45:08;;;;;;;10.20;7.05;;;4.80;99.90;;;;;;4974606;28;20134;-74
2022/11/12 04:47:39;;;;;;;12.68;7.50;;;4.70;99.90;;;;;;4973644;28;20475;-75
2022/11/12 04:50:14;;;;;;;12.00;7.53;;;4.70;99.90;;;;;;4972670;28;20130;-75
2022/11/12 04:52:40;;;;;;;11.60;8.02;;;4.70;99.90;;;;;;4973737;28;20090;-75
2022/11/12 04:55:06;;;;;;;11.77;7.90;;;4.80;99.90;;;;;;4973281;28;20470;-75
2022/11/12 04:57:32;;;;;;;27.77;13.10;;;4.80;99.90;;;;;;4973151;28;20035;-75
2022/11/12 04:59:58;;;;;;;14.75;10.05;;;4.80;99.90;;;;;;4973456;28;20446;-74
2022/11/12 05:02:23;;;;;;;13.68;10.15;;;4.70;99.90;;;;;;4973460;28;20042;-74
2022/11/12 05:04:49;;;;;;;11.38;7.70;;;4.60;99.90;;;;;;4972818;28;20054;-75
2022/11/12 05:07:15;;;;;;;12.18;7.68;;;4.80;99.90;;;;;;4973392;28;20471;-74
2022/11/12 05:09:41;;;;;;;14.15;7.63;;;4.60;99.90;;;;;;4956995;28;20104;-74
2022/11/12 05:12:08;;;;;;;13.05;7.38;;;4.60;99.90;;;;;;4979103;28;20058;-74
2022/11/12 05:14:34;;;;;;;9.77;6.45;;;4.60;99.90;;;;;;4973149;28;20031;-74
2022/11/12 05:17:00;;;;;;;9.63;6.60;;;4.60;99.90;;;;;;4973412;28;20102;-74
2022/11/12 05:19:26;;;;;;;9.52;6.47;;;5.10;99.90;;;;;;4972102;28;20050;-74
2022/11/12 05:22:07;;;;;;;9.57;6.40;;;4.70;99.90;;;;;;4972635;28;20054;-74
2022/11/12 05:24:41;;;;;;;10.18;6.53;;;4.80;99.90;;;;;;4949096;29;20055;-74
2022/11/12 05:27:17;;;;;;;18.85;11.70;;;4.70;99.90;;;;;;4967008;28;20059;-74
2022/11/12 05:29:42;;;;;;;29.77;17.02;;;4.60;99.90;;;;;;4973516;28;20054;-74
2022/11/12 05:32:10;;;;;;;12.13;8.30;;;4.50;99.90;;;;;;5001206;28;20097;-74
2022/11/12 05:34:36;;;;;;;11.93;8.38;;;4.50;99.90;;;;;;4971264;28;20130;-74
2022/11/12 05:37:04;;;;;;;11.68;7.63;;;4.50;99.90;;;;;;4973056;28;20125;-74
2022/11/12 05:39:30;;;;;;;15.23;7.03;;;4.50;99.90;;;;;;4972717;28;20059;-74
2022/11/12 05:41:55;;;;;;;13.18;7.15;;;4.50;99.90;;;;;;4972167;28;20102;-74
2022/11/12 05:44:21;;;;;;;10.27;7.00;;;4.50;99.90;;;;;;4957602;28;20475;-74
2022/11/12 05:46:47;;;;;;;10.20;6.70;;;5.00;99.90;;;;;;4978799;28;20403;-74
2022/11/12 05:49:13;;;;;;;9.55;6.95;;;4.50;99.90;;;;;;4978657;28;20062;-75
2022/11/12 05:51:39;;;;;;;10.32;6.55;;;4.50;99.90;;;;;;4978782;28;20082;-74
2022/11/12 05:54:05;;;;;;;13.63;8.20;;;4.60;99.90;;;;;;4974001;28;20117;-74
2022/11/12 05:56:31;;;;;;;10.23;7.10;;;4.50;99.90;;;;;;4972129;28;20494;-74
2022/11/12 05:58:57;;;;;;;9.63;6.28;;;4.50;99.90;;;;;;4978549;28;20375;-74
2022/11/12 06:01:23;;;;;;;9.52;6.20;;;4.60;99.90;;;;;;4979001;28;20054;-74
2022/11/12 06:03:48;;;;;;;10.43;6.45;;;4.60;99.90;;;;;;4978078;28;20051;-75
2022/11/12 06:06:14;;;;;;;8.85;6.10;;;4.50;99.90;;;;;;4972353;28;20047;-74
2022/11/12 06:08:40;;;;;;;9.63;5.90;;;5.00;99.90;;;;;;4973128;28;20118;-74
2022/11/12 06:11:06;;;;;;;8.63;5.80;;;4.50;99.90;;;;;;4979305;28;20069;-74
2022/11/12 06:13:32;;;;;;;11.13;7.78;;;4.50;99.90;;;;;;4979059;28;20062;-74
2022/11/12 06:15:57;;;;;;;27.73;15.43;;;4.70;99.90;;;;;;4979422;28;20042;-74
2022/11/12 06:18:23;;;;;;;28.27;16.05;;;4.50;99.90;;;;;;4987819;28;20081;-74
2022/11/12 06:21:18;;;;;;;19.33;11.90;;;4.30;99.90;;;;;;4977139;28;20061;-74
2022/11/12 06:23:35;;;;;;;10.07;7.00;;;4.30;99.90;;;;;;4978669;28;20145;-74
2022/11/12 06:26:01;;;;;;;13.40;9.00;;;4.30;99.90;;;;;;4962389;28;20082;-74
2022/11/12 06:28:28;;;;;;;22.73;12.00;;;4.30;99.90;;;;;;4978636;28;20134;-73
2022/11/12 06:30:54;;;;;;;9.48;6.35;;;4.20;99.90;;;;;;4979196;28;20051;-74
2022/11/12 06:33:20;;;;;;;9.40;6.90;;;4.30;99.90;;;;;;4977537;28;20078;-74
2022/11/12 06:35:46;;;;;;;8.52;6.38;;;4.20;99.90;;;;;;4979003;28;20486;-74
2022/11/12 06:38:11;;;;;;;10.82;7.30;;;4.20;99.90;;;;;;4964448;28;20085;-73
2022/11/12 06:40:37;;;;;;;20.65;8.30;;;4.20;99.90;;;;;;4962803;28;20479;-74
2022/11/12 06:43:03;;;;;;;10.68;6.60;;;4.30;99.90;;;;;;4965199;28;20055;-73
2022/11/12 06:45:28;;;;;;;8.98;6.25;;;4.10;99.90;;;;;;4942883;28;20082;-73
2022/11/12 06:47:57;;;;;;;8.90;5.93;;;4.80;99.90;;;;;;4953795;28;20498;-74
2022/11/12 06:50:23;;;;;;;9.85;5.70;;;4.10;99.90;;;;;;4965212;28;20058;-73
2022/11/12 06:52:49;;;;;;;8.73;5.57;;;4.10;99.90;;;;;;4978675;28;20483;-76
2022/11/12 06:55:15;;;;;;;9.00;5.40;;;4.00;99.90;;;;;;4976124;28;20117;-73
2022/11/12 06:57:40;;;;;;;8.05;5.43;;;4.00;99.90;;;;;;4965315;28;20041;-73
2022/11/12 07:00:08;;;;;;;10.27;6.13;;;4.00;99.90;;;;;;4975347;28;20125;-76
2022/11/12 07:02:35;;;;;;;12.40;5.95;;;4.00;99.90;;;;;;4975769;28;20407;-73
2022/11/12 07:05:00;;;;;;;8.05;5.57;;;3.90;99.90;;;;;;4986646;28;20054;-73
2022/11/12 07:07:27;;;;;;;9.13;5.65;;;4.20;99.90;;;;;;4959762;28;20066;-73
2022/11/12 07:09:53;;;;;;;142.90;11.57;;;3.90;99.90;;;;;;4966603;28;20058;-73
2022/11/12 07:12:19;;;;;;;46.25;9.70;;;3.90;99.90;;;;;;4958854;28;20055;-74
2022/11/12 07:14:45;;;;;;;9.10;5.97;;;3.90;99.90;;;;;;4975038;28;20042;-73
2022/11/12 07:17:11;;;;;;;9.07;5.97;;;3.90;99.90;;;;;;4958830;28;20050;-73
2022/11/12 07:19:36;;;;;;;9.00;6.22;;;3.90;99.90;;;;;;4975239;28;20062;-73
2022/11/12 07:22:02;;;;;;;10.05;7.03;;;4.40;99.90;;;;;;4974586;28;20125;-73
2022/11/12 07:24:28;;;;;;;9.27;5.97;;;4.00;99.90;;;;;;4976639;28;20050;-73
2022/11/12 07:26:54;;;;;;;10.35;6.20;;;4.00;99.90;;;;;;4958227;28;20102;-73
2022/11/12 07:29:19;;;;;;;8.40;5.88;;;4.10;99.90;;;;;;4955641;28;20051;-73
2022/11/12 07:31:45;;;;;;;13.30;9.02;;;4.10;99.90;;;;;;4980117;28;20047;-73
2022/11/12 07:34:11;;;;;;;10.52;6.65;;;4.30;99.90;;;;;;4974681;28;20475;-74
2022/11/12 07:36:36;;;;;;;9.77;6.47;;;4.20;99.90;;;;;;4975332;28;20097;-73
2022/11/12 07:39:02;;;;;;;10.30;6.40;;;4.20;99.90;;;;;;4955831;28;20051;-73
2022/11/12 07:41:28;;;;;;;8.80;5.97;;;4.20;99.90;;;;;;4955939;28;20051;-73
2022/11/12 07:43:54;;;;;;;8.65;6.03;;;4.30;99.90;;;;;;4985142;28;20058;-72
2022/11/12 07:46:25;;;;;;;9.23;6.85;;;4.50;99.90;;;;;;4974615;28;20042;-73
2022/11/12 07:48:51;;;;;;;9.35;5.82;;;4.20;99.90;;;;;;4973910;28;20055;-76
2022/11/12 07:51:23;;;;;;;10.95;7.57;;;4.30;99.90;;;;;;4958214;28;20483;-73
2022/11/12 07:53:49;;;;;;;12.00;8.77;;;4.30;99.90;;;;;;4976641;28;20170;-73
2022/11/12 07:56:21;;;;;;;13.63;8.60;;;4.30;99.90;;;;;;4973943;28;20054;-73
2022/11/12 07:58:49;;;;;;;13.40;9.50;;;4.40;99.90;;;;;;4974410;28;20094;-73
2022/11/12 08:01:33;;;;;;;15.68;10.75;;;4.40;99.90;;;;;;4974036;28;20047;-73
2022/11/12 08:04:00;;;;;;;15.82;11.18;;;4.40;99.90;;;;;;4973836;28;20039;-73
2022/11/12 08:06:26;;;;;;;19.48;13.52;;;4.60;99.90;;;;;;4974511;28;20066;-73
2022/11/12 08:08:53;;;;;;;21.27;14.65;;;4.60;99.90;;;;;;4957880;28;20497;-74
2022/11/12 08:11:19;;;;;;;15.60;11.90;;;4.70;99.90;;;;;;4975313;28;20141;-73
2022/11/12 08:13:45;;;;;;;16.23;12.32;;;4.90;99.90;;;;;;4975845;28;20085;-73
2022/11/12 08:16:10;;;;;;;23.00;15.23;;;4.60;99.90;;;;;;4958130;28;20061;-73
2022/11/12 08:18:36;;;;;;;21.52;15.23;;;4.70;99.90;;;;;;4974844;28;20047;-74
2022/11/12 08:21:04;;;;;;;23.88;16.90;;;4.70;99.90;;;;;;4974084;28;20050;-73
2022/11/12 08:23:30;;;;;;;27.98;19.80;;;4.80;99.90;;;;;;4972855;28;20246;-73
2022/11/12 08:26:00;;;;;;;393.90;46.85;;;4.90;99.90;;;;;;4954909;28;20146;-73
2022/11/12 08:28:28;;;;;;;159.95;39.08;;;5.10;99.90;;;;;;4954064;28;20574;-73
2022/11/12 08:30:54;;;;;;;466.80;59.80;;;5.40;99.90;;;;;;5001098;28;20138;-73
2022/11/12 08:33:19;;;;;;;329.73;54.33;;;5.70;99.90;;;;;;4976211;28;20502;-73
2022/11/12 08:35:45;;;;;;;97.85;31.60;;;6.00;99.90;;;;;;4973844;28;20074;-73
2022/11/12 08:38:12;;;;;;;41.90;31.63;;;6.10;99.90;;;;;;4973852;28;20043;-74
2022/11/12 08:40:38;;;;;;;42.67;30.98;;;6.40;99.90;;;;;;4973815;28;20129;-74
2022/11/12 08:43:07;;;;;;;33.13;24.88;;;6.50;99.90;;;;;;4973645;28;20059;-73
2022/11/12 08:45:35;;;;;;;32.25;24.75;;;6.60;99.90;;;;;;4960664;28;20057;-74
2022/11/12 08:48:02;;;;;;;39.40;27.48;;;7.60;99.90;;;;;;4960836;28;20059;-73
2022/11/12 08:50:29;;;;;;;31.23;23.95;;;6.80;99.90;;;;;;4972148;28;20126;-74
2022/11/12 08:53:06;;;;;;;34.65;26.65;;;6.90;99.90;;;;;;4989877;28;20054;-73
2022/11/12 08:55:33;;;;;;;22.40;17.33;;;6.90;99.90;;;;;;4983744;28;20051;-73
2022/11/12 08:58:02;;;;;;;20.63;15.93;;;7.00;99.90;;;;;;4963793;28;20054;-74
2022/11/12 09:00:36;;;;;;;20.17;14.93;;;7.10;99.90;;;;;;4970797;28;20045;-74
2022/11/12 09:03:04;;;;;;;18.88;15.55;;;7.20;99.90;;;;;;4937305;28;20086;-74
2022/11/12 09:05:30;;;;;;;21.20;16.70;;;7.20;99.90;;;;;;4972050;28;20115;-74
2022/11/12 09:08:05;;;;;;;20.55;16.85;;;7.30;99.90;;;;;;5000425;28;20054;-74
2022/11/12 09:10:31;;;;;;;18.42;14.27;;;7.50;99.90;;;;;;4955333;28;20113;-73
2022/11/12 09:12:57;;;;;;;17.25;13.90;;;7.60;99.90;;;;;;4961437;28;20457;-74
2022/11/12 09:15:24;;;;;;;18.52;14.48;;;7.80;99.90;;;;;;4973335;28;20089;-74
2022/11/12 09:18:04;;;;;;;16.90;13.57;;;7.90;99.90;;;;;;4986750;28;20126;-74
2022/11/12 09:20:30;;;;;;;19.80;15.35;;;7.90;99.90;;;;;;4968664;28;20059;-74
2022/11/12 09:23:01;;;;;;;18.20;14.88;;;8.00;99.90;;;;;;4963349;28;20057;-74
2022/11/12 09:25:27;;;;;;;19.20;14.32;;;8.10;99.90;;;;;;4972826;28;20051;-74
2022/11/12 09:27:53;;;;;;;20.88;14.95;;;8.20;99.90;;;;;;4972704;28;20062;-75
2022/11/12 09:30:19;;;;;;;23.17;16.60;;;8.20;99.90;;;;;;4973009;28;20054;-75
2022/11/12 09:32:44;;;;;;;20.13;14.70;;;8.30;99.90;;;;;;4973332;28;20046;-74
2022/11/12 09:35:10;;;;;;;20.95;13.93;;;8.30;99.90;;;;;;4954518;28;20134;-74
2022/11/12 09:37:38;;;;;;;16.70;12.30;;;8.40;99.90;;;;;;4965244;28;20395;-74
2022/11/12 09:40:05;;;;;;;17.70;12.52;;;8.40;99.90;;;;;;4972235;28;20446;-74
2022/11/12 09:42:34;;;;;;;15.43;12.57;;;8.60;99.90;;;;;;4956648;28;20126;-75
2022/11/12 09:45:06;;;;;;;15.93;12.32;;;8.70;99.90;;;;;;4972262;28;20054;-75
2022/11/12 09:47:39;;;;;;;18.00;14.02;;;8.90;99.90;;;;;;4973098;28;20050;-75
2022/11/12 09:50:34;;;;;;;17.20;13.63;;;9.00;99.90;;;;;;4972098;28;20153;-75
2022/11/12 09:53:06;;;;;;;20.17;14.73;;;9.10;99.90;;;;;;4984162;28;20047;-76
2022/11/12 09:55:42;;;;;;;17.45;13.07;;;9.20;99.90;;;;;;4973997;28;20093;-75
2022/11/12 09:58:13;;;;;;;17.02;12.10;;;9.30;99.90;;;;;;4972782;28;20046;-75
2022/11/12 10:00:59;;;;;;;16.10;11.82;;;9.50;99.90;;;;;;4956481;28;20063;-74
2022/11/12 10:03:46;;;;;;;16.88;11.65;;;9.60;99.90;;;;;;4972043;28;20483;-74
2022/11/12 10:06:22;;;;;;;15.60;10.85;;;9.70;99.90;;;;;;4972810;28;20050;-75
2022/11/12 10:08:56;;;;;;;15.77;11.48;;;9.80;99.90;;;;;;4964078;28;20066;-75
2022/11/12 10:12:49;;;;;;;15.45;12.10;;;9.90;99.90;;;;;;4972962;28;20093;-75
2022/11/12 10:18:26;;;;;;;17.08;11.70;;;10.00;99.90;;;;;;4959213;28;20059;-75
2022/11/12 10:20:57;;;;;;;14.75;10.90;;;10.10;99.90;;;;;;4943736;28;20186;-76
2022/11/12 10:23:45;;;;;;;15.48;11.10;;;10.20;99.90;;;;;;4954236;28;20051;-76
2022/11/12 10:26:17;;;;;;;15.73;11.20;;;10.20;99.90;;;;;;4961825;28;20054;-76
2022/11/12 10:29:02;;;;;;;;;;;10.20;99.90;;;;;;4957627;28;20097;-77
2022/11/12 10:31:28;;;;;;;20.58;13.55;;;10.20;99.90;;;;;;4977855;28;20374;-77
2022/11/12 10:34:13;;;;;;;16.27;12.10;;;10.10;99.90;;;;;;4975445;28;20054;-77
2022/11/12 10:36:45;;;;;;;17.23;12.88;;;10.10;99.90;;;;;;4992237;28;20058;-76
2022/11/12 10:39:31;;;;;;;17.60;12.05;;;10.10;99.90;;;;;;4995751;28;20104;-76
2022/11/12 10:42:09;;;;;;;17.95;13.75;;;10.00;99.90;;;;;;4993713;28;20078;-76
2022/11/12 10:44:35;;;;;;;17.52;13.57;;;9.90;99.90;;;;;;4998057;28;20118;-76
2022/11/12 10:47:23;;;;;;;19.13;14.30;;;9.90;99.90;;;;;;4976044;28;20079;-76
2022/11/12 10:50:07;;;;;;;19.35;13.63;;;9.90;99.90;;;;;;4981231;28;20133;-77
2022/11/12 10:52:33;;;;;;;18.90;13.75;;;9.90;99.90;;;;;;4976524;28;20050;-77
2022/11/12 10:55:13;;;;;;;17.92;12.95;;;9.90;99.90;;;;;;4971572;28;20060;-77
2022/11/12 10:57:39;;;;;;;18.88;12.73;;;10.00;99.90;;;;;;4969936;28;20047;-77
2022/11/12 11:00:19;;;;;;;16.98;12.50;;;10.10;99.90;;;;;;4969993;28;20365;-76
2022/11/12 11:02:52;;;;;;;18.95;12.73;;;10.30;99.90;;;;;;4975834;28;20113;-81
2022/11/12 11:05:44;;;;;;;17.88;12.82;;;10.40;99.90;;;;;;4975324;28;20062;-77
2022/11/12 11:08:10;;;;;;;18.13;13.03;;;10.50;99.90;;;;;;4975343;28;20062;-77
2022/11/12 11:10:36;;;;;;;18.52;12.98;;;10.60;99.90;;;;;;4975439;28;20097;-77
2022/11/12 11:13:21;;;;;;;18.80;13.50;;;10.70;99.90;;;;;;4959376;28;20134;-76
2022/11/12 11:16:02;;;;;;;17.25;12.75;;;10.90;99.90;;;;;;4958965;28;20050;-76
2022/11/12 11:18:31;;;;;;;17.70;12.45;;;11.00;99.90;;;;;;4974358;28;20035;-76
2022/11/12 11:21:02;;;;;;;17.40;12.50;;;11.10;99.90;;;;;;4991785;28;20407;-77
2022/11/12 11:23:52;;;;;;;17.35;11.57;;;11.20;99.90;;;;;;4975137;28;20083;-77
2022/11/12 11:26:36;;;;;;;16.75;12.70;;;11.30;99.90;;;;;;4975288;28;20081;-77
2022/11/12 11:29:24;;;;;;;16.58;11.93;;;11.40;99.90;;;;;;4972668;28;20062;-77
2022/11/12 11:32:10;;;;;;;16.42;11.60;;;11.30;99.90;;;;;;4953818;28;20086;-77
2022/11/12 11:34:57;;;;;;;16.48;11.63;;;11.40;99.90;;;;;;4984364;28;20388;-80
2022/11/12 11:37:28;;;;;;;16.70;11.00;;;11.40;99.90;;;;;;4955941;29;20047;-76
2022/11/12 11:40:08;;;;;;;17.50;11.20;;;11.50;99.90;;;;;;4972030;28;20090;-76
2022/11/12 11:42:46;;;;;;;16.30;10.60;;;11.50;99.90;;;;;;5000445;28;20558;-76
2022/11/12 11:45:49;;;;;;;14.75;10.13;;;11.50;99.90;;;;;;4970752;28;20384;-76
2022/11/12 11:48:31;;;;;;;15.65;11.05;;;11.60;99.90;;;;;;4983499;28;20161;-76
2022/11/12 11:51:09;;;;;;;16.08;12.05;;;11.60;99.90;;;;;;4974847;28;20129;-77
2022/11/12 11:53:54;;;;;;;16.42;11.75;;;11.60;99.90;;;;;;4990312;28;20077;-77
2022/11/12 11:56:35;;;;;;;16.13;11.50;;;11.70;99.90;;;;;;4983985;28;20061;-77
2022/11/12 11:59:19;;;;;;;16.33;11.57;;;11.80;99.90;;;;;;4963029;28;20066;-77
2022/11/12 12:02:16;;;;;;;17.40;11.90;;;11.90;99.90;;;;;;4963152;28;20058;-77
2022/11/12 12:04:48;;;;;;;15.52;11.32;;;12.00;99.90;;;;;;4954584;28;20443;-76
2022/11/12 12:07:19;;;;;;;;;;;12.10;99.90;;;;;;4972171;28;20491;-76
2022/11/12 12:10:12;;;;;;;16.43;10.13;;;12.40;99.90;;;;;;4974463;28;20306;-76
2022/11/12 12:12:41;;;;;;;16.35;10.20;;;12.30;99.90;;;;;;4960205;28;20349;-76
2022/11/12 12:15:26;;;;;;;15.20;10.10;;;12.20;99.90;;;;;;4996857;28;20051;-76
2022/11/12 12:18:02;;;;;;;16.13;10.90;;;12.30;99.90;;;;;;4973262;28;20050;-78
2022/11/12 12:20:29;;;;;;;13.25;9.60;;;12.40;99.90;;;;;;4970774;28;20046;-76
2022/11/12 12:23:30;;;;;;;14.43;10.13;;;12.40;99.90;;;;;;4980252;28;20047;-76
2022/11/12 12:25:58;;;;;;;15.57;10.40;;;12.40;99.90;;;;;;4990328;28;20051;-77
2022/11/12 12:28:59;;;;;;;13.95;9.93;;;12.40;99.90;;;;;;4973724;28;20483;-76
2022/11/12 12:31:36;;;;;;;15.30;10.85;;;12.40;99.90;;;;;;4976877;28;20046;-76
2022/11/12 12:34:11;;;;;;;14.55;10.20;;;12.40;99.90;;;;;;4983887;28;20074;-77
2022/11/12 12:36:39;;;;;;;14.02;10.55;;;12.40;99.90;;;;;;4992117;28;20046;-77
2022/11/12 12:39:34;;;;;;;14.40;9.77;;;12.40;99.90;;;;;;4984483;28;20050;-76
2022/11/12 12:42:08;;;;;;;14.98;9.82;;;12.40;99.90;;;;;;4964435;28;20513;-76
2022/11/12 12:45:00;;;;;;;11.40;8.60;;;12.30;99.90;;;;;;4981241;28;20051;-76
2022/11/12 12:47:29;;;;;;;12.35;8.73;;;12.30;99.90;;;;;;4974033;28;20047;-76
2022/11/12 12:49:57;;;;;;;12.73;8.55;;;12.30;99.90;;;;;;4972552;28;20055;-77
2022/11/12 12:52:23;;;;;;;12.43;8.10;;;12.30;99.90;;;;;;4973456;28;20078;-76
2022/11/12 12:54:51;;;;;;;11.32;8.02;;;12.30;99.90;;;;;;4965842;28;20459;-77
2022/11/12 12:57:36;;;;;;;11.13;8.02;;;12.30;99.90;;;;;;4976963;28;20498;-77
2022/11/12 13:00:31;;;;;;;12.48;8.45;;;12.30;99.90;;;;;;4960561;28;20043;-77
2022/11/12 13:02:57;;;;;;;11.50;8.20;;;12.30;99.90;;;;;;4962825;28;20047;-78
2022/11/12 13:05:35;;;;;;;11.38;8.15;;;12.30;99.90;;;;;;4973150;28;20506;-76
2022/11/12 13:08:09;;;;;;;11.52;8.13;;;12.30;99.90;;;;;;4973200;28;20046;-77
2022/11/12 13:10:38;;;;;;;11.75;8.40;;;12.20;99.90;;;;;;4970510;28;20618;-77
2022/11/12 13:13:19;;;;;;;12.05;8.68;;;12.30;99.90;;;;;;4973526;28;20054;-77
2022/11/12 13:15:53;;;;;;;12.07;8.43;;;12.30;99.90;;;;;;4984490;28;20062;-77
2022/11/12 13:18:37;;;;;;;11.27;8.52;;;12.30;99.90;;;;;;4972364;28;20050;-77
2022/11/12 13:21:15;;;;;;;12.60;8.90;;;12.30;99.90;;;;;;4966302;28;20058;-77